AWC61LM LDPL-LSGG
Flight info
| Callsign | AWC61LM |
|---|---|
| Flight time | 1h 8m |
| Altitude | 36000 |
| Route | PEVAL DCT OSKOR DCT AOSTA/N0362F220 L615 BANKO |
| Aircraft | A320/M-SDE3FGHIRWY/LB1 |
Departure
| Time | 2026-05-04 13:14 |
|---|---|
| Airport | Pula Airport (LDPL) |
Arrival
| Time | 2026-05-04 14:22 |
|---|---|
| Airport | Geneva International Airport (LSGG) |
| Time | Latitude | Longitude | Altitude | Speed | Heading |
|---|---|---|---|---|---|
| 2026-05-04 12:35 | 44.89693 | 13.92401 | 226 ft | 0 kts | 39° |
| 2026-05-04 13:05 | 44.89694 | 13.92403 | 226 ft | 0 kts | 50° |
| 2026-05-04 13:05 | 44.89693 | 13.92406 | 226 ft | 1 kts | 68° |
| 2026-05-04 13:05 | 44.89692 | 13.92411 | 226 ft | 1 kts | 101° |
| 2026-05-04 13:06 | 44.89688 | 13.92415 | 227 ft | 0 kts | 140° |
| 2026-05-04 13:06 | 44.89679 | 13.92415 | 228 ft | 2 kts | 183° |
| 2026-05-04 13:06 | 44.89644 | 13.92412 | 226 ft | 5 kts | 179° |
| 2026-05-04 13:06 | 44.89639 | 13.92425 | 226 ft | 2 kts | 108° |
| 2026-05-04 13:07 | 44.89629 | 13.92450 | 226 ft | 4 kts | 130° |
| 2026-05-04 13:07 | 44.89598 | 13.92453 | 226 ft | 5 kts | 207° |
| 2026-05-04 13:07 | 44.89581 | 13.92399 | 226 ft | 7 kts | 266° |
| 2026-05-04 13:07 | 44.89579 | 13.92319 | 226 ft | 9 kts | 268° |
| 2026-05-04 13:08 | 44.89576 | 13.92222 | 226 ft | 11 kts | 268° |
| 2026-05-04 13:08 | 44.89574 | 13.92108 | 226 ft | 13 kts | 268° |
| 2026-05-04 13:08 | 44.89570 | 13.91972 | 226 ft | 15 kts | 268° |
| 2026-05-04 13:08 | 44.89567 | 13.91816 | 225 ft | 17 kts | 269° |
| 2026-05-04 13:09 | 44.89563 | 13.91653 | 226 ft | 16 kts | 268° |
| 2026-05-04 13:09 | 44.89560 | 13.91479 | 218 ft | 19 kts | 268° |
| 2026-05-04 13:09 | 44.89556 | 13.91302 | 218 ft | 18 kts | 268° |
| 2026-05-04 13:09 | 44.89552 | 13.91135 | 216 ft | 17 kts | 268° |
| 2026-05-04 13:10 | 44.89548 | 13.90966 | 218 ft | 17 kts | 268° |
| 2026-05-04 13:10 | 44.89544 | 13.90804 | 217 ft | 16 kts | 269° |
| 2026-05-04 13:10 | 44.89541 | 13.90671 | 216 ft | 12 kts | 264° |
| 2026-05-04 13:10 | 44.89515 | 13.90580 | 221 ft | 9 kts | 232° |
| 2026-05-04 13:11 | 44.89486 | 13.90536 | 219 ft | 6 kts | 227° |
| 2026-05-04 13:11 | 44.89460 | 13.90495 | 222 ft | 5 kts | 227° |
| 2026-05-04 13:11 | 44.89436 | 13.90458 | 221 ft | 5 kts | 227° |
| 2026-05-04 13:11 | 44.89412 | 13.90423 | 223 ft | 6 kts | 225° |
| 2026-05-04 13:12 | 44.89380 | 13.90382 | 224 ft | 6 kts | 214° |
| 2026-05-04 13:12 | 44.89342 | 13.90366 | 225 ft | 6 kts | 188° |
| 2026-05-04 13:12 | 44.89315 | 13.90380 | 226 ft | 4 kts | 123° |
| 2026-05-04 13:12 | 44.89315 | 13.90428 | 224 ft | 0 kts | 89° |
| 2026-05-04 13:13 | 44.89317 | 13.90508 | 223 ft | 36 kts | 88° |
| 2026-05-04 13:13 | 44.89333 | 13.91207 | 223 ft | 103 kts | 88° |
| 2026-05-04 13:13 | 44.89360 | 13.92477 | 229 ft | 153 kts | 89° |
| 2026-05-04 13:14 | 44.89392 | 13.93954 | 828 ft | 149 kts | 89° |
| 2026-05-04 13:14 | 44.89422 | 13.95411 | 1468 ft | 148 kts | 90° |
| 2026-05-04 13:14 | 44.89459 | 13.96977 | 1617 ft | 173 kts | 90° |
| 2026-05-04 13:14 | 44.89496 | 13.98778 | 1942 ft | 192 kts | 90° |
| 2026-05-04 13:15 | 44.89531 | 14.00743 | 2293 ft | 211 kts | 88° |
| 2026-05-04 13:15 | 44.89989 | 14.02816 | 2587 ft | 239 kts | 52° |
| 2026-05-04 13:15 | 44.91374 | 14.04151 | 3153 ft | 251 kts | 13° |
| 2026-05-04 13:15 | 44.93122 | 14.04324 | 3918 ft | 254 kts | 359° |
| 2026-05-04 13:16 | 44.94854 | 14.04818 | 4791 ft | 260 kts | 24° |
| 2026-05-04 13:16 | 44.96471 | 14.06052 | 5543 ft | 265 kts | 27° |
| 2026-05-04 13:16 | 44.98092 | 14.07287 | 6057 ft | 264 kts | 27° |
| 2026-05-04 13:16 | 44.99710 | 14.08518 | 6295 ft | 264 kts | 27° |
| 2026-05-04 13:17 | 45.01326 | 14.09758 | 6517 ft | 265 kts | 28° |
| 2026-05-04 13:17 | 45.02984 | 14.10872 | 6732 ft | 264 kts | 16° |
| 2026-05-04 13:17 | 45.04812 | 14.11269 | 6978 ft | 275 kts | 356° |
| 2026-05-04 13:17 | 45.06737 | 14.11153 | 7605 ft | 284 kts | 356° |
| 2026-05-04 13:18 | 45.08737 | 14.11037 | 8356 ft | 291 kts | 356° |
| 2026-05-04 13:18 | 45.10759 | 14.10752 | 9158 ft | 294 kts | 342° |
| 2026-05-04 13:18 | 45.12594 | 14.09511 | 9924 ft | 294 kts | 320° |
| 2026-05-04 13:18 | 45.13943 | 14.07358 | 10523 ft | 298 kts | 297° |
| 2026-05-04 13:19 | 45.14708 | 14.04538 | 10724 ft | 318 kts | 284° |
| 2026-05-04 13:19 | 45.15137 | 14.02473 | 10948 ft | 328 kts | 284° |
| 2026-05-04 13:19 | 45.15988 | 13.98299 | 11757 ft | 336 kts | 284° |
| 2026-05-04 13:19 | 45.16644 | 13.95097 | 12438 ft | 340 kts | 284° |
| 2026-05-04 13:20 | 45.17313 | 13.91863 | 13125 ft | 344 kts | 283° |
| 2026-05-04 13:20 | 45.17995 | 13.88593 | 13801 ft | 348 kts | 283° |
| 2026-05-04 13:20 | 45.18685 | 13.85296 | 14412 ft | 351 kts | 284° |
| 2026-05-04 13:20 | 45.19385 | 13.81959 | 15010 ft | 354 kts | 284° |
| 2026-05-04 13:21 | 45.20087 | 13.78598 | 15646 ft | 356 kts | 284° |
| 2026-05-04 13:21 | 45.20790 | 13.75214 | 16253 ft | 359 kts | 284° |
| 2026-05-04 13:21 | 45.21499 | 13.71803 | 16874 ft | 362 kts | 284° |
| 2026-05-04 13:21 | 45.22203 | 13.68414 | 17476 ft | 364 kts | 283° |
| 2026-05-04 13:22 | 45.22919 | 13.64951 | 18112 ft | 367 kts | 283° |
| 2026-05-04 13:22 | 45.23639 | 13.61468 | 18688 ft | 370 kts | 284° |
| 2026-05-04 13:22 | 45.24364 | 13.57949 | 19241 ft | 373 kts | 284° |
| 2026-05-04 13:22 | 45.25093 | 13.54402 | 19791 ft | 375 kts | 284° |
| 2026-05-04 13:23 | 45.25825 | 13.50839 | 20345 ft | 378 kts | 284° |
| 2026-05-04 13:23 | 45.26563 | 13.47241 | 20891 ft | 381 kts | 284° |
| 2026-05-04 13:23 | 45.27055 | 13.44841 | 21237 ft | 383 kts | 284° |
| 2026-05-04 13:23 | 45.28052 | 13.39966 | 21937 ft | 386 kts | 285° |
| 2026-05-04 13:24 | 45.28551 | 13.37533 | 22281 ft | 388 kts | 285° |
| 2026-05-04 13:24 | 45.29306 | 13.33838 | 22800 ft | 391 kts | 285° |
| 2026-05-04 13:24 | 45.30061 | 13.30128 | 23312 ft | 393 kts | 285° |
| 2026-05-04 13:25 | 45.31430 | 13.22566 | 24229 ft | 397 kts | 279° |
| 2026-05-04 13:25 | 45.31905 | 13.18681 | 24640 ft | 400 kts | 279° |
| 2026-05-04 13:25 | 45.32377 | 13.14778 | 25063 ft | 401 kts | 279° |
| 2026-05-04 13:25 | 45.32845 | 13.10867 | 25483 ft | 403 kts | 278° |
| 2026-05-04 13:26 | 45.33316 | 13.06931 | 25893 ft | 405 kts | 278° |
| 2026-05-04 13:26 | 45.33785 | 13.03032 | 26303 ft | 406 kts | 278° |
| 2026-05-04 13:26 | 45.34260 | 12.99064 | 26709 ft | 408 kts | 278° |
| 2026-05-04 13:26 | 45.34735 | 12.95082 | 27103 ft | 409 kts | 278° |
| 2026-05-04 13:27 | 45.35212 | 12.91083 | 27490 ft | 411 kts | 278° |
| 2026-05-04 13:27 | 45.35692 | 12.87069 | 27893 ft | 412 kts | 278° |
| 2026-05-04 13:27 | 45.36169 | 12.83045 | 28242 ft | 415 kts | 278° |
| 2026-05-04 13:27 | 45.36647 | 12.78980 | 28608 ft | 416 kts | 278° |
| 2026-05-04 13:28 | 45.37127 | 12.74912 | 28973 ft | 418 kts | 278° |
| 2026-05-04 13:28 | 45.37609 | 12.70830 | 29336 ft | 420 kts | 278° |
| 2026-05-04 13:28 | 45.38093 | 12.66719 | 29697 ft | 422 kts | 278° |
| 2026-05-04 13:28 | 45.38576 | 12.62590 | 30060 ft | 424 kts | 278° |
| 2026-05-04 13:29 | 45.39060 | 12.58451 | 30370 ft | 426 kts | 278° |
| 2026-05-04 13:29 | 45.39546 | 12.54280 | 30653 ft | 428 kts | 278° |
| 2026-05-04 13:29 | 45.40033 | 12.50085 | 30955 ft | 429 kts | 278° |
| 2026-05-04 13:29 | 45.40514 | 12.45901 | 31333 ft | 429 kts | 277° |
| 2026-05-04 13:30 | 45.40993 | 12.41695 | 31695 ft | 430 kts | 277° |
| 2026-05-04 13:30 | 45.41462 | 12.37551 | 32073 ft | 429 kts | 277° |
| 2026-05-04 13:30 | 45.41937 | 12.33358 | 32469 ft | 429 kts | 277° |
| 2026-05-04 13:30 | 45.42413 | 12.29165 | 32865 ft | 428 kts | 277° |
| 2026-05-04 13:31 | 45.42890 | 12.24977 | 33259 ft | 428 kts | 277° |
| 2026-05-04 13:31 | 45.43365 | 12.20796 | 33664 ft | 428 kts | 277° |
| 2026-05-04 13:31 | 45.43838 | 12.16620 | 34047 ft | 427 kts | 277° |
| 2026-05-04 13:31 | 45.44308 | 12.12444 | 34402 ft | 426 kts | 277° |
| 2026-05-04 13:32 | 45.44774 | 12.08284 | 34805 ft | 423 kts | 277° |
| 2026-05-04 13:32 | 45.45230 | 12.04159 | 35163 ft | 422 kts | 277° |
| 2026-05-04 13:32 | 45.45686 | 12.00045 | 35412 ft | 420 kts | 277° |
| 2026-05-04 13:32 | 45.46141 | 11.95946 | 35656 ft | 418 kts | 277° |
| 2026-05-04 13:33 | 45.46591 | 11.91851 | 35910 ft | 417 kts | 277° |
| 2026-05-04 13:33 | 45.47031 | 11.87815 | 36038 ft | 416 kts | 277° |
| 2026-05-04 13:33 | 45.47924 | 11.79676 | 36065 ft | 416 kts | 277° |
| 2026-05-04 13:34 | 45.48811 | 11.71532 | 36064 ft | 416 kts | 277° |
| 2026-05-04 13:34 | 45.49688 | 11.63369 | 36063 ft | 417 kts | 276° |
| 2026-05-04 13:35 | 45.50987 | 11.51116 | 36062 ft | 417 kts | 276° |
| 2026-05-04 13:36 | 45.51856 | 11.42934 | 36075 ft | 417 kts | 276° |
| 2026-05-04 13:36 | 45.52724 | 11.34745 | 36074 ft | 417 kts | 276° |
| 2026-05-04 13:37 | 45.53586 | 11.26551 | 36082 ft | 417 kts | 276° |
| 2026-05-04 13:37 | 45.54427 | 11.18405 | 36089 ft | 418 kts | 276° |
| 2026-05-04 13:38 | 45.55268 | 11.10211 | 36097 ft | 418 kts | 276° |
| 2026-05-04 13:38 | 45.56107 | 11.02004 | 36098 ft | 418 kts | 276° |
| 2026-05-04 13:39 | 45.56938 | 10.93803 | 36106 ft | 417 kts | 276° |
| 2026-05-04 13:39 | 45.57764 | 10.85607 | 36105 ft | 417 kts | 276° |
| 2026-05-04 13:40 | 45.58583 | 10.77413 | 36105 ft | 417 kts | 276° |
| 2026-05-04 13:40 | 45.59396 | 10.69215 | 36103 ft | 417 kts | 276° |
| 2026-05-04 13:41 | 45.60203 | 10.61018 | 36102 ft | 417 kts | 276° |
| 2026-05-04 13:41 | 45.61003 | 10.52826 | 36112 ft | 416 kts | 276° |
| 2026-05-04 13:42 | 45.62191 | 10.40549 | 36107 ft | 416 kts | 276° |
| 2026-05-04 13:42 | 45.62973 | 10.32421 | 36105 ft | 415 kts | 276° |
| 2026-05-04 13:43 | 45.63753 | 10.24237 | 36104 ft | 415 kts | 276° |
| 2026-05-04 13:43 | 45.64526 | 10.16052 | 36115 ft | 415 kts | 275° |
| 2026-05-04 13:44 | 45.65239 | 10.07869 | 36110 ft | 414 kts | 274° |
| 2026-05-04 13:44 | 45.65764 | 9.99692 | 36128 ft | 413 kts | 273° |
| 2026-05-04 13:45 | 45.66244 | 9.91509 | 36127 ft | 412 kts | 273° |
| 2026-05-04 13:45 | 45.66736 | 9.83354 | 36128 ft | 412 kts | 273° |
| 2026-05-04 13:46 | 45.67248 | 9.75193 | 36140 ft | 412 kts | 273° |
| 2026-05-04 13:46 | 45.67756 | 9.67035 | 36131 ft | 411 kts | 273° |
| 2026-05-04 13:47 | 45.68255 | 9.58894 | 36132 ft | 411 kts | 273° |
| 2026-05-04 13:47 | 45.68740 | 9.50797 | 36219 ft | 411 kts | 273° |
| 2026-05-04 13:48 | 45.69222 | 9.42643 | 36219 ft | 411 kts | 273° |
| 2026-05-04 13:48 | 45.69704 | 9.34500 | 36121 ft | 411 kts | 273° |
| 2026-05-04 13:49 | 45.70180 | 9.26357 | 36120 ft | 411 kts | 273° |
| 2026-05-04 13:49 | 45.70651 | 9.18202 | 36110 ft | 411 kts | 272° |
| 2026-05-04 13:50 | 45.71112 | 9.10055 | 36119 ft | 411 kts | 272° |
| 2026-05-04 13:50 | 45.71571 | 9.01902 | 36130 ft | 411 kts | 272° |
| 2026-05-04 13:51 | 45.72023 | 8.93756 | 36135 ft | 410 kts | 272° |
| 2026-05-04 13:51 | 45.72469 | 8.85625 | 36134 ft | 410 kts | 272° |
| 2026-05-04 13:52 | 45.73124 | 8.73418 | 36138 ft | 410 kts | 272° |
| 2026-05-04 13:53 | 45.73549 | 8.65323 | 36158 ft | 410 kts | 272° |
| 2026-05-04 13:53 | 45.73975 | 8.57198 | 36152 ft | 409 kts | 272° |
| 2026-05-04 13:54 | 45.74597 | 8.45012 | 35903 ft | 408 kts | 271° |
| 2026-05-04 13:54 | 45.75000 | 8.36960 | 35401 ft | 404 kts | 271° |
| 2026-05-04 13:55 | 45.75201 | 8.32958 | 35172 ft | 402 kts | 271° |
| 2026-05-04 13:55 | 45.75592 | 8.25009 | 34704 ft | 398 kts | 270° |
| 2026-05-04 13:55 | 45.75785 | 8.21065 | 34466 ft | 397 kts | 270° |
| 2026-05-04 13:56 | 45.75977 | 8.17130 | 34236 ft | 395 kts | 270° |
| 2026-05-04 13:56 | 45.76165 | 8.13220 | 33976 ft | 393 kts | 270° |
| 2026-05-04 13:56 | 45.76536 | 8.05416 | 33419 ft | 391 kts | 270° |
| 2026-05-04 13:57 | 45.76719 | 8.01524 | 33165 ft | 391 kts | 270° |
| 2026-05-04 13:57 | 45.76899 | 7.97650 | 32905 ft | 389 kts | 270° |
| 2026-05-04 13:58 | 45.77432 | 7.86071 | 32138 ft | 388 kts | 269° |
| 2026-05-04 13:58 | 45.77784 | 7.78317 | 31622 ft | 390 kts | 269° |
| 2026-05-04 13:58 | 45.77956 | 7.74429 | 31370 ft | 390 kts | 269° |
| 2026-05-04 13:59 | 45.78126 | 7.70550 | 31118 ft | 390 kts | 269° |
| 2026-05-04 13:59 | 45.78294 | 7.66718 | 30874 ft | 391 kts | 269° |
| 2026-05-04 13:59 | 45.78635 | 7.58947 | 30382 ft | 390 kts | 269° |
| 2026-05-04 14:00 | 45.78804 | 7.55075 | 30119 ft | 389 kts | 269° |
| 2026-05-04 14:00 | 45.79130 | 7.47359 | 29544 ft | 384 kts | 269° |
| 2026-05-04 14:00 | 45.79289 | 7.43563 | 29174 ft | 381 kts | 269° |
| 2026-05-04 14:01 | 45.79444 | 7.39774 | 28791 ft | 379 kts | 269° |
| 2026-05-04 14:01 | 45.79596 | 7.36012 | 28403 ft | 377 kts | 269° |
| 2026-05-04 14:01 | 45.80045 | 7.28511 | 27588 ft | 378 kts | 272° |
| 2026-05-04 14:02 | 45.80361 | 7.24826 | 27185 ft | 377 kts | 273° |
| 2026-05-04 14:02 | 45.80699 | 7.21101 | 26766 ft | 377 kts | 274° |
| 2026-05-04 14:02 | 45.81032 | 7.17377 | 26359 ft | 377 kts | 273° |
| 2026-05-04 14:02 | 45.81352 | 7.13651 | 25927 ft | 375 kts | 273° |
| 2026-05-04 14:03 | 45.81662 | 7.09946 | 25493 ft | 375 kts | 273° |
| 2026-05-04 14:03 | 45.82224 | 7.06268 | 25054 ft | 382 kts | 284° |
| 2026-05-04 14:03 | 45.83330 | 7.02777 | 24598 ft | 388 kts | 296° |
| 2026-05-04 14:03 | 45.84841 | 6.99539 | 24129 ft | 391 kts | 300° |
| 2026-05-04 14:04 | 45.87909 | 6.93142 | 23103 ft | 382 kts | 299° |
| 2026-05-04 14:04 | 45.89388 | 6.90053 | 22632 ft | 368 kts | 300° |
| 2026-05-04 14:04 | 45.90810 | 6.87081 | 22197 ft | 355 kts | 299° |
| 2026-05-04 14:05 | 45.93570 | 6.81248 | 21324 ft | 352 kts | 299° |
| 2026-05-04 14:05 | 45.94941 | 6.78341 | 20895 ft | 351 kts | 299° |
| 2026-05-04 14:05 | 45.96307 | 6.75444 | 20485 ft | 350 kts | 299° |
| 2026-05-04 14:06 | 45.97662 | 6.72544 | 20076 ft | 349 kts | 298° |
| 2026-05-04 14:06 | 45.99008 | 6.69643 | 19651 ft | 348 kts | 298° |
| 2026-05-04 14:06 | 46.00343 | 6.66755 | 19240 ft | 346 kts | 298° |
| 2026-05-04 14:06 | 46.01673 | 6.63870 | 18812 ft | 346 kts | 298° |
| 2026-05-04 14:07 | 46.03003 | 6.60979 | 18400 ft | 346 kts | 298° |
| 2026-05-04 14:07 | 46.04335 | 6.58086 | 17943 ft | 347 kts | 298° |
| 2026-05-04 14:07 | 46.05665 | 6.55205 | 17533 ft | 344 kts | 298° |
| 2026-05-04 14:07 | 46.06994 | 6.52362 | 17121 ft | 341 kts | 299° |
| 2026-05-04 14:08 | 46.08326 | 6.49544 | 16712 ft | 339 kts | 299° |
| 2026-05-04 14:08 | 46.09652 | 6.46750 | 16311 ft | 337 kts | 299° |
| 2026-05-04 14:08 | 46.10975 | 6.43963 | 15906 ft | 337 kts | 299° |
| 2026-05-04 14:08 | 46.12271 | 6.41220 | 15521 ft | 335 kts | 299° |
| 2026-05-04 14:09 | 46.14875 | 6.35708 | 14741 ft | 330 kts | 300° |
| 2026-05-04 14:09 | 46.16164 | 6.33024 | 14272 ft | 321 kts | 303° |
| 2026-05-04 14:10 | 46.19924 | 6.29876 | 13242 ft | 326 kts | 352° |
| 2026-05-04 14:10 | 46.22187 | 6.30216 | 12792 ft | 331 kts | 19° |
| 2026-05-04 14:10 | 46.24159 | 6.31882 | 12364 ft | 331 kts | 44° |
| 2026-05-04 14:10 | 46.25760 | 6.34230 | 11979 ft | 329 kts | 47° |
| 2026-05-04 14:11 | 46.27346 | 6.36586 | 11577 ft | 323 kts | 46° |
| 2026-05-04 14:11 | 46.30437 | 6.41148 | 10547 ft | 310 kts | 47° |
| 2026-05-04 14:11 | 46.31912 | 6.43328 | 10211 ft | 298 kts | 47° |
| 2026-05-04 14:12 | 46.33338 | 6.45439 | 9886 ft | 288 kts | 47° |
| 2026-05-04 14:12 | 46.34263 | 6.46809 | 9665 ft | 287 kts | 47° |
| 2026-05-04 14:12 | 46.36983 | 6.50829 | 9071 ft | 273 kts | 47° |
| 2026-05-04 14:13 | 46.38295 | 6.52781 | 8680 ft | 269 kts | 47° |
| 2026-05-04 14:13 | 46.39586 | 6.54719 | 8491 ft | 265 kts | 47° |
| 2026-05-04 14:13 | 46.40879 | 6.56601 | 8310 ft | 262 kts | 40° |
| 2026-05-04 14:13 | 46.42475 | 6.57842 | 8040 ft | 262 kts | 14° |
| 2026-05-04 14:14 | 46.44272 | 6.58002 | 7758 ft | 258 kts | 348° |
| 2026-05-04 14:14 | 46.47119 | 6.55338 | 7206 ft | 243 kts | 299° |
| 2026-05-04 14:14 | 46.47734 | 6.53130 | 7026 ft | 231 kts | 276° |
| 2026-05-04 14:15 | 46.47410 | 6.48607 | 6984 ft | 227 kts | 255° |
| 2026-05-04 14:15 | 46.46390 | 6.44364 | 7003 ft | 221 kts | 230° |
| 2026-05-04 14:16 | 46.44335 | 6.41225 | 6770 ft | 212 kts | 224° |
| 2026-05-04 14:16 | 46.43307 | 6.39700 | 6517 ft | 211 kts | 224° |
| 2026-05-04 14:17 | 46.41271 | 6.36677 | 5960 ft | 208 kts | 223° |
| 2026-05-04 14:17 | 46.40262 | 6.35182 | 5684 ft | 207 kts | 223° |
| 2026-05-04 14:17 | 46.38264 | 6.32222 | 5142 ft | 206 kts | 224° |
| 2026-05-04 14:18 | 46.37264 | 6.30741 | 4882 ft | 205 kts | 224° |
| 2026-05-04 14:18 | 46.35283 | 6.27811 | 4348 ft | 200 kts | 225° |
| 2026-05-04 14:19 | 46.33390 | 6.25013 | 3800 ft | 186 kts | 225° |
| 2026-05-04 14:19 | 46.32517 | 6.23725 | 3564 ft | 173 kts | 225° |
| 2026-05-04 14:19 | 46.31691 | 6.22506 | 3350 ft | 168 kts | 225° |
| 2026-05-04 14:19 | 46.30891 | 6.21325 | 3130 ft | 165 kts | 225° |
| 2026-05-04 14:20 | 46.30086 | 6.20140 | 2886 ft | 163 kts | 225° |
| 2026-05-04 14:20 | 46.29319 | 6.19008 | 2649 ft | 153 kts | 226° |
| 2026-05-04 14:20 | 46.28597 | 6.17945 | 2461 ft | 145 kts | 226° |
| 2026-05-04 14:21 | 46.27215 | 6.15911 | 2044 ft | 141 kts | 226° |
| 2026-05-04 14:21 | 46.26532 | 6.14906 | 1848 ft | 140 kts | 227° |
| 2026-05-04 14:21 | 46.25851 | 6.13907 | 1673 ft | 141 kts | 228° |
| 2026-05-04 14:21 | 46.25166 | 6.12900 | 1497 ft | 141 kts | 228° |
| 2026-05-04 14:22 | 46.24503 | 6.11915 | 1402 ft | 124 kts | 227° |
| 2026-05-04 14:22 | 46.24019 | 6.11201 | 1406 ft | 75 kts | 225° |
| 2026-05-04 14:22 | 46.23776 | 6.10854 | 1396 ft | 22 kts | 219° |
| 2026-05-04 14:22 | 46.23656 | 6.10751 | 1396 ft | 17 kts | 201° |
| 2026-05-04 14:23 | 46.23560 | 6.10712 | 1398 ft | 3 kts | 195° |
| 2026-05-04 14:23 | 46.23554 | 6.10710 | 1394 ft | 0 kts | 196° |
| 2026-05-04 14:23 | 46.23551 | 6.10708 | 1394 ft | 1 kts | 196° |
| 2026-05-04 14:24 | 46.23521 | 6.10696 | 1393 ft | 7 kts | 196° |
| 2026-05-04 14:24 | 46.23474 | 6.10678 | 1393 ft | 7 kts | 192° |
| 2026-05-04 14:24 | 46.23432 | 6.10686 | 1401 ft | 6 kts | 153° |
| 2026-05-04 14:24 | 46.23400 | 6.10728 | 1398 ft | 6 kts | 136° |
| 2026-05-04 14:25 | 46.23372 | 6.10767 | 1397 ft | 5 kts | 136° |
| 2026-05-04 14:25 | 46.23317 | 6.10799 | 1397 ft | 4 kts | 193° |
| 2026-05-04 14:25 | 46.23287 | 6.10789 | 1396 ft | 6 kts | 194° |
| 2026-05-04 14:26 | 46.23248 | 6.10772 | 1393 ft | 5 kts | 204° |
| 2026-05-04 14:26 | 46.23221 | 6.10738 | 1393 ft | 5 kts | 226° |
| 2026-05-04 14:26 | 46.23198 | 6.10703 | 1404 ft | 4 kts | 226° |
| 2026-05-04 14:26 | 46.23186 | 6.10698 | 1393 ft | 0 kts | 176° |
| 2026-05-04 14:27 | 46.23183 | 6.10703 | 1395 ft | 3 kts | 146° |
| 2026-05-04 14:27 | 46.23175 | 6.10713 | 1399 ft | 0 kts | 139° |
| 2026-05-04 14:27 | 46.23166 | 6.10726 | 1397 ft | 3 kts | 136° |
| 2026-05-04 14:27 | 46.23156 | 6.10740 | 1398 ft | 1 kts | 134° |
| 2026-05-04 14:28 | 46.23151 | 6.10748 | 1397 ft | 0 kts | 135° |